Time;durP1;ratioP1;P1;durP2;ratioP2;P2;SDS_P1;SDS_P2;PMS_P1;PMS_P2;Temp;Humidity;BMP_temperature;BMP_pressure;BME280_temperature;BME280_humidity;BME280_pressure;Samples;Min_cycle;Max_cycle;Signal;HPM_P1;HPM_P2
2021/08/19 00:01:52;;;;;;;5.97;2.55;;;;;;;20.88;40.88;98533.22;5087752;28;20040;-91
2021/08/19 00:04:18;;;;;;;5.53;2.65;;;;;;;20.91;40.68;98533.00;5089158;28;20491;-89
2021/08/19 00:06:44;;;;;;;5.90;2.70;;;;;;;20.85;40.39;98511.81;5088768;28;20131;-90
2021/08/19 00:09:09;;;;;;;5.25;2.55;;;;;;;20.90;40.36;98526.72;5089336;28;20387;-91
2021/08/19 00:11:37;;;;;;;5.22;2.65;;;;;;;20.92;40.22;98535.56;5089623;28;20097;-89
2021/08/19 00:14:03;;;;;;;4.63;2.70;;;;;;;20.99;40.33;98541.41;5089056;28;20032;-90
2021/08/19 00:16:28;;;;;;;11.45;2.60;;;;;;;20.99;39.68;98536.00;5087571;28;20040;-90
2021/08/19 00:18:54;;;;;;;5.20;2.55;;;;;;;20.98;39.83;98541.53;5089065;28;20052;-90
2021/08/19 00:21:20;;;;;;;6.97;2.60;;;;;;;20.87;39.96;98532.34;5089649;28;20535;-90
2021/08/19 00:23:46;;;;;;;5.35;2.65;;;;;;;20.77;40.34;98519.63;5089516;28;20824;-90
2021/08/19 00:26:12;;;;;;;5.50;2.65;;;;;;;20.66;40.17;98506.91;5089034;28;20044;-88
2021/08/19 00:28:39;;;;;;;5.55;3.13;;;;;;;20.84;40.29;98537.09;5089236;28;20067;-88
2021/08/19 00:31:05;;;;;;;5.25;2.40;;;;;;;20.86;40.10;98538.75;5076731;28;20040;-91
2021/08/19 00:33:31;;;;;;;3.95;2.50;;;;;;;20.87;39.76;98537.75;5075789;28;20546;-91
2021/08/19 00:35:56;;;;;;;5.32;2.80;;;;;;;20.76;39.73;98517.91;5073969;28;20043;-91
2021/08/19 00:38:23;;;;;;;6.55;2.42;;;;;;;20.82;39.76;98530.94;5075690;28;20041;-90
2021/08/19 00:40:48;;;;;;;4.95;2.70;;;;;;;20.71;39.93;98524.50;5075006;28;20063;-89
2021/08/19 00:43:14;;;;;;;5.18;2.70;;;;;;;20.76;39.67;98528.72;5075548;28;20045;-91
2021/08/19 00:45:42;;;;;;;6.25;2.60;;;;;;;20.73;40.02;98532.47;5073728;28;20664;-90
2021/08/19 00:48:08;;;;;;;5.45;2.75;;;;;;;20.68;40.28;98521.16;5075228;28;20629;-90
2021/08/19 00:50:34;;;;;;;4.25;2.55;;;;;;;20.68;39.82;98523.84;5075326;28;20047;-89
2021/08/19 00:53:00;;;;;;;5.03;2.80;;;;;;;20.67;39.94;98532.94;5075393;28;20403;-91
2021/08/19 00:55:27;;;;;;;5.93;2.38;;;;;;;20.60;40.20;98537.94;5075509;28;20064;-91
2021/08/19 00:57:54;;;;;;;4.53;2.53;;;;;;;20.63;39.78;98518.78;5075076;28;20036;-90
2021/08/19 01:00:21;;;;;;;4.75;2.50;;;;;;;20.63;39.95;98524.19;5073483;28;20037;-90
2021/08/19 01:02:48;;;;;;;4.45;2.38;;;;;;;20.58;40.08;98531.78;5075348;28;20067;-89
2021/08/19 01:05:16;;;;;;;4.57;2.50;;;;;;;20.58;40.33;98525.50;5075066;28;20051;-90
2021/08/19 01:07:43;;;;;;;5.95;2.10;;;;;;;20.43;40.16;98511.25;5075861;28;20128;-91
2021/08/19 01:10:10;;;;;;;5.25;2.80;;;;;;;20.39;40.39;98507.88;5075177;28;20099;-90
2021/08/19 01:12:36;;;;;;;4.43;2.30;;;;;;;20.47;40.24;98529.81;5074157;28;20510;-89
2021/08/19 01:15:01;;;;;;;5.60;2.58;;;;;;;;;;5072810;28;20032;-89
2021/08/19 01:17:29;;;;;;;6.53;2.65;;;;;;;20.47;39.42;98507.31;5074831;28;20090;-88
2021/08/19 01:19:57;;;;;;;4.93;2.30;;;;;;;20.49;39.47;98521.56;5074552;28;20047;-90
2021/08/19 01:22:24;;;;;;;4.72;2.60;;;;;;;20.58;39.63;98530.88;5075109;28;20040;-90
2021/08/19 01:24:50;;;;;;;7.55;2.78;;;;;;;20.53;39.45;98525.78;5074711;28;20071;-91
2021/08/19 01:27:18;;;;;;;4.82;2.38;;;;;;;20.43;39.65;98512.09;5074931;28;20045;-90
2021/08/19 01:29:45;;;;;;;7.70;2.85;;;;;;;20.51;39.61;98525.91;5074681;28;20494;-91
2021/08/19 01:32:11;;;;;;;4.90;2.58;;;;;;;20.43;39.30;98525.59;5071949;28;20037;-90
2021/08/19 01:34:38;;;;;;;4.88;2.38;;;;;;;20.37;40.29;98525.19;5074943;28;20060;-89
2021/08/19 01:37:05;;;;;;;3.83;2.13;;;;;;;20.42;39.92;98540.06;5074622;28;20044;-90
2021/08/19 01:39:31;;;;;;;4.63;2.45;;;;;;;20.45;40.52;98547.97;5074387;28;20044;-90
2021/08/19 01:41:57;;;;;;;5.00;2.47;;;;;;;20.34;40.92;98547.84;5073902;28;20505;-91
2021/08/19 01:44:24;;;;;;;6.05;2.55;;;;;;;20.14;41.82;98541.16;5074414;28;20055;-90
2021/08/19 01:46:51;;;;;;;5.13;2.45;;;;;;;19.83;43.35;98527.09;5072175;28;20358;-90
2021/08/19 01:49:17;;;;;;;5.20;2.90;;;;;;;19.86;44.07;98556.56;5074322;28;20383;-88
2021/08/19 01:51:43;;;;;;;4.28;2.60;;;;;;;19.69;44.64;98555.03;5074148;28;20041;-89
2021/08/19 01:54:09;;;;;;;5.30;2.65;;;;;;;19.46;44.80;98529.56;5074411;28;20050;-90
2021/08/19 01:56:35;;;;;;;4.10;2.60;;;;;;;19.37;44.73;98543.66;5074344;28;20477;-89
2021/08/19 01:59:00;;;;;;;5.43;2.65;;;;;;;19.34;44.98;98557.34;5074189;28;20041;-92
2021/08/19 02:01:27;;;;;;;6.00;2.50;;;;;;;19.17;45.27;98546.81;5071943;28;20491;-90
2021/08/19 02:03:54;;;;;;;6.22;2.58;;;;;;;19.14;43.95;98536.22;5073576;28;20043;-90
2021/08/19 02:06:21;;;;;;;6.93;2.50;;;;;;;19.35;44.64;98558.22;5073886;28;20054;-90
2021/08/19 02:08:49;;;;;;;5.65;2.60;;;;;;;19.18;45.33;98549.41;5074003;28;20028;-88
2021/08/19 02:11:16;;;;;;;5.63;2.42;;;;;;;19.04;45.56;98552.13;5074238;28;20086;-91
2021/08/19 02:13:42;;;;;;;4.22;2.72;;;;;;;18.96;46.09;98558.03;5074424;28;20033;-89
2021/08/19 02:16:08;;;;;;;4.93;2.58;;;;;;;18.80;46.75;98538.41;5071106;28;20460;-89
2021/08/19 02:18:35;;;;;;;3.80;2.40;;;;;;;18.84;46.41;98556.97;5073595;28;20049;-90
2021/08/19 02:21:00;;;;;;;5.68;2.75;;;;;;;18.83;46.47;98557.09;5073643;28;20044;-89
2021/08/19 02:23:26;;;;;;;6.80;2.30;;;;;;;18.83;45.39;98540.94;5073786;28;20040;-90
2021/08/19 02:25:52;;;;;;;6.03;2.67;;;;;;;18.88;45.77;98539.66;5073511;28;20043;-89
2021/08/19 02:28:18;;;;;;;7.05;2.70;;;;;;;18.99;46.95;98549.75;5070736;28;20039;-89
2021/08/19 02:30:43;;;;;;;6.60;2.58;;;;;;;18.90;46.87;98544.09;5070968;28;20039;-90
2021/08/19 02:33:09;;;;;;;4.90;2.70;;;;;;;18.98;45.08;98547.16;5072829;28;20044;-90
2021/08/19 02:35:36;;;;;;;6.30;2.63;;;;;;;19.13;44.75;98562.34;5074150;28;20455;-89
2021/08/19 02:38:06;;;;;;;6.13;2.90;;;;;;;19.15;45.34;98546.94;5073609;28;20051;-90
2021/08/19 02:40:35;;;;;;;3.95;2.53;;;;;;;19.15;45.17;98546.94;5073479;28;20559;-90
2021/08/19 02:43:00;;;;;;;5.25;2.42;;;;;;;18.91;45.94;98535.91;5073417;28;20035;-90
2021/08/19 02:45:26;;;;;;;6.60;2.50;;;;;;;18.81;46.28;98532.94;5071789;28;20032;-91
2021/08/19 02:47:52;;;;;;;4.85;2.78;;;;;;;18.70;47.36;98548.03;5073578;28;20055;-90
2021/08/19 02:50:18;;;;;;;5.50;2.95;;;;;;;18.53;48.64;98563.44;5073386;28;20036;-91
2021/08/19 02:52:45;;;;;;;4.78;2.65;;;;;;;18.40;48.76;98563.31;5073216;28;20037;-91
2021/08/19 02:55:11;;;;;;;9.45;3.17;;;;;;;18.28;48.94;98553.31;5073313;28;20089;-90
2021/08/19 02:57:37;;;;;;;5.13;2.63;;;;;;;18.37;49.13;98559.97;5073438;28;20052;-91
2021/08/19 03:00:05;;;;;;;10.25;2.75;;;;;;;18.38;48.58;98565.25;5070113;28;20432;-90
2021/08/19 03:02:31;;;;;;;6.88;2.88;;;;;;;18.41;47.86;98548.03;5073361;28;20061;-91
2021/08/19 03:04:57;;;;;;;5.35;3.15;;;;;;;18.55;47.23;98542.66;5073079;28;20043;-89
2021/08/19 03:07:23;;;;;;;6.50;2.92;;;;;;;18.74;45.80;98545.06;5072247;28;20079;-90
2021/08/19 03:09:50;;;;;;;4.93;2.72;;;;;;;18.87;45.68;98547.84;5072420;28;20040;-89
2021/08/19 03:12:16;;;;;;;5.53;2.80;;;;;;;19.17;44.04;98557.59;5073259;28;20047;-89
2021/08/19 03:14:42;;;;;;;5.60;2.40;;;;;;;19.17;44.14;98533.31;5073361;28;20120;-89
2021/08/19 03:17:08;;;;;;;6.05;2.88;;;;;;;19.25;43.63;98529.16;5070790;28;20052;-89
2021/08/19 03:19:35;;;;;;;5.47;2.60;;;;;;;19.31;44.12;98544.06;5073249;28;20072;-89
2021/08/19 03:22:01;;;;;;;5.10;2.60;;;;;;;19.16;44.15;98523.53;5072949;28;20047;-90
2021/08/19 03:24:27;;;;;;;6.70;2.78;;;;;;;19.34;44.32;98551.94;5073472;28;20436;-90
2021/08/19 03:26:54;;;;;;;4.53;2.42;;;;;;;19.34;44.16;98554.63;5073045;28;20043;-90
2021/08/19 03:29:20;;;;;;;8.68;2.60;;;;;;;19.33;44.23;98552.91;5073271;28;20063;-91
2021/08/19 03:31:46;;;;;;;5.60;2.70;;;;;;;19.39;43.79;98543.56;5070895;28;20498;-89
2021/08/19 03:34:12;;;;;;;4.88;2.60;;;;;;;19.37;43.92;98529.31;5072756;28;20121;-91
2021/08/19 03:36:38;;;;;;;5.85;3.08;;;;;;;19.39;43.80;98528.25;5073130;28;20037;-89
2021/08/19 03:39:05;;;;;;;5.28;2.70;;;;;;;19.54;43.32;98542.53;5073113;28;20123;-90
2021/08/19 03:41:31;;;;;;;6.88;2.67;;;;;;;19.57;43.41;98539.63;5073031;28;20036;-89
2021/08/19 03:43:58;;;;;;;5.97;2.65;;;;;;;19.62;43.50;98542.88;5072960;28;20036;-90
2021/08/19 03:46:24;;;;;;;6.15;2.80;;;;;;;19.48;43.51;98524.94;5071181;28;20090;-90
2021/08/19 03:48:50;;;;;;;6.03;2.70;;;;;;;19.52;43.64;98539.09;5072973;28;20405;-88
2021/08/19 03:51:15;;;;;;;5.82;2.75;;;;;;;19.35;43.77;98509.69;5073148;28;20079;-91
2021/08/19 03:53:41;;;;;;;5.03;2.75;;;;;;;19.48;43.77;98541.09;5072521;28;20443;-88
2021/08/19 03:56:08;;;;;;;5.05;2.67;;;;;;;19.51;43.92;98542.72;5073099;28;20426;-89
2021/08/19 03:58:34;;;;;;;6.95;2.80;;;;;;;19.35;44.31;98529.41;5072627;28;20123;-90
2021/08/19 04:01:02;;;;;;;5.32;2.90;;;;;;;19.42;43.97;98544.22;5070247;28;20589;-91
2021/08/19 04:03:28;;;;;;;6.00;3.10;;;;;;;19.45;43.78;98546.72;5072759;28;20121;-89
2021/08/19 04:05:53;;;;;;;4.80;2.70;;;;;;;19.44;43.41;98531.50;5074641;28;20433;-91
2021/08/19 04:08:20;;;;;;;7.22;2.92;;;;;;;19.40;43.68;98513.78;5076314;28;20402;-91
2021/08/19 04:10:46;;;;;;;5.28;2.55;;;;;;;19.54;43.27;98542.53;5076573;28;20132;-90
2021/08/19 04:13:12;;;;;;;7.13;2.90;;;;;;;19.58;43.31;98532.38;5076524;28;20509;-90
2021/08/19 04:15:38;;;;;;;8.18;2.70;;;;;;;19.57;42.79;98527.97;5074325;28;20033;-91
2021/08/19 04:18:05;;;;;;;5.82;2.58;;;;;;;19.57;43.28;98525.28;5076154;28;20043;-90
2021/08/19 04:20:31;;;;;;;5.30;3.00;;;;;;;19.66;42.68;98538.13;5075678;28;20050;-89
2021/08/19 04:22:56;;;;;;;5.43;3.17;;;;;;;19.72;42.74;98539.59;5076397;28;20028;-91
2021/08/19 04:25:22;;;;;;;5.40;3.03;;;;;;;19.66;42.87;98540.84;5075839;28;20098;-90
2021/08/19 04:27:48;;;;;;;6.18;2.70;;;;;;;19.77;42.82;98551.78;5074537;28;20437;-90
2021/08/19 04:30:14;;;;;;;5.72;2.80;;;;;;;19.72;42.86;98543.16;5074325;28;20033;-90
2021/08/19 04:32:40;;;;;;;6.13;2.70;;;;;;;19.73;42.46;98539.47;5076148;28;20037;-90
2021/08/19 04:35:09;;;;;;;5.85;3.13;;;;;;;19.73;43.01;98544.88;5075721;28;20037;-91
2021/08/19 04:37:35;;;;;;;6.18;3.00;;;;;;;19.63;43.17;98541.06;5076134;28;20127;-91
2021/08/19 04:40:01;;;;;;;6.72;3.28;;;;;;;19.54;46.61;98553.31;5075558;28;20435;-89
2021/08/19 04:42:27;;;;;;;7.15;3.33;;;;;;;19.27;48.10;98556.03;5075980;28;20367;-90
2021/08/19 04:44:52;;;;;;;7.00;3.50;;;;;;;19.07;48.45;98544.72;5073909;28;20082;-91
2021/08/19 04:47:18;;;;;;;7.43;3.47;;;;;;;18.98;49.43;98557.94;5075753;28;20041;-90
2021/08/19 04:49:44;;;;;;;7.65;3.60;;;;;;;18.78;50.33;98557.41;5076451;28;20130;-90
2021/08/19 04:52:11;;;;;;;6.93;3.53;;;;;;;18.62;51.00;98557.44;5075715;28;20063;-91
2021/08/19 04:54:37;;;;;;;5.45;3.25;;;;;;;18.54;51.12;98558.91;5075882;28;20090;-90
2021/08/19 04:57:03;;;;;;;8.32;3.38;;;;;;;18.35;51.82;98540.38;5075774;28;20485;-90
2021/08/19 04:59:29;;;;;;;7.20;3.60;;;;;;;18.36;52.18;98560.94;5075578;28;20138;-90
2021/08/19 05:01:55;;;;;;;8.15;3.80;;;;;;;18.27;52.57;98552.47;5073410;28;20479;-91
2021/08/19 05:04:21;;;;;;;8.98;3.42;;;;;;;18.31;52.59;98563.06;5075348;28;20494;-89
2021/08/19 05:06:47;;;;;;;10.18;3.60;;;;;;;18.22;52.61;98549.19;5075655;28;20428;-90
2021/08/19 05:09:14;;;;;;;10.65;3.28;;;;;;;18.27;52.67;98568.59;5076242;28;20043;-90
2021/08/19 05:11:40;;;;;;;6.18;3.42;;;;;;;18.17;52.72;98540.56;5075302;28;20490;-91
2021/08/19 05:14:05;;;;;;;9.05;3.42;;;;;;;18.45;52.79;98569.31;5075788;28;20046;-92
2021/08/19 05:16:32;;;;;;;5.90;3.35;;;;;;;18.45;52.17;98573.81;5072832;28;20770;-90
2021/08/19 05:18:58;;;;;;;9.05;3.47;;;;;;;18.48;52.74;98562.88;5075321;28;20036;-91
2021/08/19 05:21:24;;;;;;;9.55;3.50;;;;;;;18.46;51.83;98544.09;5075614;28;20036;-90
2021/08/19 05:23:50;;;;;;;8.38;3.80;;;;;;;18.58;51.91;98545.13;5077778;28;20045;-91
2021/08/19 05:26:18;;;;;;;13.68;3.78;;;;;;;18.69;50.97;98531.00;5074975;28;20044;-88
2021/08/19 05:28:44;;;;;;;8.87;3.97;;;;;;;18.93;51.01;98550.13;5075183;28;20039;-90
2021/08/19 05:31:11;;;;;;;6.57;3.50;;;;;;;19.12;49.68;98551.63;5072841;28;20086;-91
2021/08/19 05:33:37;;;;;;;8.25;3.13;;;;;;;19.43;46.23;98567.53;5072316;28;20490;-90
2021/08/19 05:36:08;;;;;;;5.78;2.80;;;;;;;19.80;44.85;98567.78;5074942;28;20090;-92
2021/08/19 05:38:34;;;;;;;6.20;2.80;;;;;;;20.03;45.36;98560.78;5074050;28;20466;-91
2021/08/19 05:40:59;;;;;;;7.03;3.40;;;;;;;20.36;44.90;98563.94;5075039;28;20043;-90
2021/08/19 05:43:27;;;;;;;6.55;3.38;;;;;;;20.48;45.61;98545.03;5074402;28;20035;-90
2021/08/19 05:45:52;;;;;;;9.80;3.78;;;;;;;20.64;45.93;98552.06;5072464;28;20041;-91
2021/08/19 05:48:18;;;;;;;10.73;4.50;;;;;;;20.79;46.10;98559.06;5074974;28;20058;-90
2021/08/19 05:50:44;;;;;;;9.45;3.75;;;;;;;20.76;45.96;98551.19;5074790;28;20124;-89
2021/08/19 05:53:10;;;;;;;8.13;3.75;;;;;;;20.93;46.53;98558.09;5074197;28;20762;-91
2021/08/19 05:55:35;;;;;;;8.40;3.67;;;;;;;20.89;46.20;98559.28;5074440;28;20039;-91
2021/08/19 05:58:01;;;;;;;8.38;3.70;;;;;;;20.86;46.33;98563.06;5075116;28;20036;-91
2021/08/19 06:00:29;;;;;;;10.02;3.42;;;;;;;20.99;47.24;98571.16;5071847;28;20032;-92
2021/08/19 06:02:54;;;;;;;5.63;3.38;;;;;;;21.12;45.56;98562.97;5074012;28;20032;-91
2021/08/19 06:05:20;;;;;;;9.32;4.10;;;;;;;21.06;45.00;98548.09;5073809;28;20119;-91
2021/08/19 06:07:46;;;;;;;8.93;3.63;;;;;;;21.22;45.45;98566.75;5074240;28;20036;-91
2021/08/19 06:10:12;;;;;;;9.90;3.70;;;;;;;21.35;45.23;98561.28;5073459;28;20528;-91
2021/08/19 06:12:39;;;;;;;10.07;4.00;;;;;;;21.62;45.21;98574.63;5074387;28;20124;-91
2021/08/19 06:15:07;;;;;;;9.25;3.55;;;;;;;21.65;44.35;98554.59;5070681;28;20036;-90
2021/08/19 06:17:35;;;;;;;10.68;4.03;;;;;;;21.77;43.90;98569.88;5073560;28;20033;-90
2021/08/19 06:20:01;;;;;;;8.20;3.78;;;;;;;21.44;45.21;98582.25;5073124;28;20053;-91
2021/08/19 06:22:26;;;;;;;7.20;3.58;;;;;;;21.49;45.21;98585.50;5073864;28;20068;-94
2021/08/19 06:24:52;;;;;;;7.30;3.50;;;;;;;21.56;46.74;98557.97;5074619;28;20083;-92
2021/08/19 06:27:18;;;;;;;8.20;3.75;;;;;;;21.79;44.56;98554.38;5074820;28;20067;-92
2021/08/19 06:29:44;;;;;;;7.57;3.75;;;;;;;21.79;43.94;98551.66;5073900;28;20124;-92
2021/08/19 06:32:14;;;;;;;7.35;3.63;;;;;;;21.99;44.63;98542.03;5072028;28;20525;-92
2021/08/19 06:34:42;;;;;;;7.85;3.63;;;;;;;22.31;43.94;98560.34;5074755;28;20094;-92
2021/08/19 06:37:07;;;;;;;11.63;3.58;;;;;;;22.60;42.13;98554.44;5073008;28;20071;-92
2021/08/19 06:39:33;;;;;;;7.60;3.83;;;;;;;22.79;42.00;98549.25;5075770;28;20060;-92
2021/08/19 06:41:59;;;;;;;6.57;3.03;;;;;;;22.90;40.31;98549.28;5075427;28;20472;-93
2021/08/19 06:44:25;;;;;;;7.43;2.90;;;;;;;23.12;38.94;98548.41;5075607;28;20033;-92
2021/08/19 06:46:51;;;;;;;6.30;2.78;;;;;;;23.36;38.05;98553.66;5074522;28;20129;-92
2021/08/19 06:49:17;;;;;;;8.30;2.67;;;;;;;23.61;37.52;98538.03;5076237;28;20102;-92
2021/08/19 06:51:44;;;;;;;5.93;3.15;;;;;;;23.67;36.50;98523.06;5075734;28;20505;-91
2021/08/19 06:54:10;;;;;;;8.10;2.95;;;;;;;23.58;37.00;98512.00;5076079;28;20044;-92
2021/08/19 06:56:36;;;;;;;6.82;2.60;;;;;;;23.60;37.31;98522.75;5075141;28;20044;-92
2021/08/19 06:59:02;;;;;;;4.43;2.75;;;;;;;23.51;37.21;98509.97;5071964;28;20509;-91
2021/08/19 07:01:27;;;;;;;6.05;2.72;;;;;;;23.71;36.84;98519.13;5070745;28;20047;-90
2021/08/19 07:03:53;;;;;;;7.95;2.97;;;;;;;23.70;36.29;98528.22;5074233;28;20044;-90
2021/08/19 07:06:19;;;;;;;7.22;2.83;;;;;;;23.89;36.37;98519.41;5074448;28;20127;-90
2021/08/19 07:08:46;;;;;;;7.03;2.65;;;;;;;23.96;35.70;98513.34;5073510;28;20520;-91
2021/08/19 07:11:12;;;;;;;6.07;2.65;;;;;;;23.65;35.89;98516.91;5073211;28;20036;-93
2021/08/19 07:13:38;;;;;;;5.90;3.00;;;;;;;24.05;34.90;98524.38;5073332;28;20042;-91
2021/08/19 07:16:11;;;;;;;4.78;2.53;;;;;;;24.13;34.80;98520.00;5069243;28;20065;-91
2021/08/19 07:18:37;;;;;;;4.60;2.78;;;;;;;24.06;34.38;98516.09;5066840;28;20048;-92
2021/08/19 07:21:03;;;;;;;5.38;2.47;;;;;;;24.16;34.57;98510.75;5073787;28;20502;-91
2021/08/19 07:23:29;;;;;;;5.07;2.60;;;;;;;24.29;34.26;98516.81;5072666;28;20521;-91
2021/08/19 07:25:56;;;;;;;28.67;3.83;;;;;;;24.72;34.05;98520.34;5072418;28;20028;-90
2021/08/19 07:28:22;;;;;;;5.22;2.60;;;;;;;24.90;32.75;98515.13;5072838;28;20043;-92
2021/08/19 07:30:47;;;;;;;5.63;2.58;;;;;;;24.96;32.22;98519.97;5070142;28;20390;-92
2021/08/19 07:33:13;;;;;;;4.57;2.72;;;;;;;25.06;31.98;98496.38;5072842;28;20090;-91
2021/08/19 07:35:39;;;;;;;4.97;2.75;;;;;;;25.30;31.85;98498.75;5071692;28;20048;-93
2021/08/19 07:38:05;;;;;;;6.82;2.90;;;;;;;25.04;32.09;98503.81;5072868;28;20048;-92
2021/08/19 07:40:36;;;;;;;5.05;2.65;;;;;;;24.97;31.15;98516.28;5075698;28;20037;-91
2021/08/19 07:43:04;;;;;;;5.03;2.42;;;;;;;25.21;30.97;98499.59;5078234;28;20079;-90
2021/08/19 07:45:30;;;;;;;5.30;2.75;;;;;;;25.03;30.28;98496.69;5076716;28;20040;-91
2021/08/19 07:47:56;;;;;;;4.32;2.20;;;;;;;25.41;31.11;98506.78;5077875;28;20040;-91
2021/08/19 07:50:22;;;;;;;4.72;2.80;;;;;;;25.56;30.54;98501.78;5078114;28;20106;-91
2021/08/19 07:52:48;;;;;;;6.53;2.53;;;;;;;25.70;30.77;98507.78;5077192;28;20040;-91
2021/08/19 07:55:14;;;;;;;4.78;2.63;;;;;;;25.88;29.50;98513.38;5076347;28;20033;-92
2021/08/19 07:57:41;;;;;;;5.68;2.38;;;;;;;25.47;30.60;98512.69;5076854;28;20036;-91
2021/08/19 08:00:11;;;;;;;7.00;2.88;;;;;;;25.76;30.52;98518.09;5076214;28;20059;-92
2021/08/19 08:02:37;;;;;;;4.85;2.65;;;;;;;26.26;30.87;98517.06;5077316;28;20043;-92
2021/08/19 08:05:03;;;;;;;5.53;2.53;;;;;;;26.36;28.73;98524.22;5076458;28;20029;-91
2021/08/19 08:07:30;;;;;;;5.82;2.70;;;;;;;26.53;29.25;98517.13;5075861;28;20119;-91
2021/08/19 08:09:56;;;;;;;4.72;2.78;;;;;;;26.75;28.95;98507.75;5078455;28;20040;-91
2021/08/19 08:12:21;;;;;;;3.58;2.28;;;;;;;26.77;28.32;98511.19;5078065;28;20027;-91
2021/08/19 08:14:47;;;;;;;5.00;2.70;;;;;;;26.68;28.09;98513.97;5074565;28;20040;-91
2021/08/19 08:17:15;;;;;;;4.35;2.30;;;;;;;26.87;28.25;98505.69;5075628;28;20041;-91
2021/08/19 08:19:41;;;;;;;5.43;2.90;;;;;;;26.64;28.29;98510.66;5075886;28;20037;-91
2021/08/19 08:22:07;;;;;;;5.72;2.78;;;;;;;26.61;27.56;98495.47;5077718;28;20552;-91
2021/08/19 08:24:32;;;;;;;6.50;2.53;;;;;;;26.88;28.24;98506.53;5078128;28;20041;-91
2021/08/19 08:26:59;;;;;;;4.75;2.38;;;;;;;27.12;27.92;98515.00;5075893;28;20466;-91
2021/08/19 08:29:25;;;;;;;5.03;2.30;;;;;;;27.16;26.08;98513.69;5076442;28;20032;-91
2021/08/19 08:31:51;;;;;;;5.82;2.67;;;;;;;27.28;27.05;98522.56;5076316;28;20115;-92
2021/08/19 08:34:18;;;;;;;5.43;2.60;;;;;;;26.97;26.61;98527.47;5077618;28;20055;-91
2021/08/19 08:36:44;;;;;;;5.43;2.17;;;;;;;27.45;26.61;98521.75;5076411;28;20036;-91
2021/08/19 08:39:11;;;;;;;5.32;2.30;;;;;;;27.46;26.75;98508.94;5075766;28;20397;-91
2021/08/19 08:41:39;;;;;;;4.07;2.28;;;;;;;27.70;26.00;98521.13;5077608;28;20040;-93
2021/08/19 08:44:09;;;;;;;6.38;2.55;;;;;;;27.78;25.76;98500.19;5077490;28;20041;-91
2021/08/19 08:46:35;;;;;;;5.57;2.70;;;;;;;27.88;26.12;98500.13;5073642;28;20037;-91
2021/08/19 08:49:02;;;;;;;4.00;2.20;;;;;;;27.71;25.22;98512.75;5074630;28;20374;-92
2021/08/19 08:51:30;;;;;;;3.85;2.35;;;;;;;27.59;25.26;98524.94;5075590;28;20044;-92
2021/08/19 08:53:56;;;;;;;4.43;2.30;;;;;;;27.80;25.78;98513.69;5076399;28;20064;-91
2021/08/19 08:56:22;;;;;;;4.90;2.40;;;;;;;27.70;25.06;98516.50;5076593;28;20532;-91
2021/08/19 08:58:51;;;;;;;4.90;2.33;;;;;;;27.80;24.91;98510.94;5075575;28;20040;-91
2021/08/19 09:01:17;;;;;;;3.92;2.20;;;;;;;28.02;23.46;98518.69;5073563;28;20045;-91
2021/08/19 09:03:43;;;;;;;3.85;2.10;;;;;;;28.12;23.23;98525.94;5075685;28;20123;-92
2021/08/19 09:06:09;;;;;;;12.20;3.17;;;;;;;28.56;23.90;98513.13;5075677;28;20467;-91
2021/08/19 09:08:50;;;;;;;3.78;2.15;;;;;;;28.95;22.81;98514.47;5076282;28;20036;-91
2021/08/19 09:11:16;;;;;;;5.55;2.58;;;;;;;28.27;24.09;98519.72;5076794;28;20406;-92
2021/08/19 09:13:41;;;;;;;5.38;2.33;;;;;;;27.96;24.29;98504.81;5075845;28;20044;-92
2021/08/19 09:16:15;;;;;;;4.57;2.40;;;;;;;28.25;24.19;98508.09;5073216;28;20044;-93
2021/08/19 09:18:49;;;;;;;6.75;2.50;;;;;;;28.67;23.46;98510.09;5073372;28;20052;-92
2021/08/19 09:21:20;;;;;;;4.50;2.38;;;;;;;28.61;22.50;98516.22;5074609;28;20040;-92
2021/08/19 09:24:10;;;;;;;3.92;2.30;;;;;;;28.85;23.01;98515.47;5075041;28;20039;-93
2021/08/19 09:26:36;;;;;;;4.50;2.30;;;;;;;28.98;22.92;98487.66;5068958;28;20044;-92
2021/08/19 09:29:20;;;;;;;5.88;2.30;;;;;;;29.46;22.84;98510.72;5074426;28;20420;-93
2021/08/19 09:31:49;;;;;;;4.65;2.17;;;;;;;29.12;21.66;98485.31;5073894;28;20068;-93
2021/08/19 09:34:15;;;;;;;4.75;2.20;;;;;;;29.44;21.63;98504.56;5073564;28;20072;-93
2021/08/19 09:36:41;;;;;;;5.70;2.30;;;;;;;28.90;22.20;98494.97;5075183;28;20045;-93
2021/08/19 09:39:09;;;;;;;3.22;1.90;;;;;;;29.04;22.06;98491.63;5075223;28;20052;-92
2021/08/19 09:41:56;;;;;;;4.78;2.38;;;;;;;29.34;22.11;98492.91;5074395;28;20117;-92
2021/08/19 09:44:33;;;;;;;4.07;2.25;;;;;;;29.24;22.54;98504.00;5074552;28;20132;-92
2021/08/19 09:46:59;;;;;;;4.55;2.05;;;;;;;29.20;21.91;98499.88;5073138;28;20040;-92
2021/08/19 09:49:28;;;;;;;3.03;1.85;;;;;;;29.49;20.41;98504.94;5074813;28;20048;-91
2021/08/19 09:52:17;;;;;;;2.90;1.90;;;;;;;29.81;20.60;98496.94;5074537;28;20498;-91
2021/08/19 09:54:44;;;;;;;3.83;2.00;;;;;;;30.01;18.82;98503.78;5073119;28;20440;-92
2021/08/19 09:57:10;;;;;;;3.30;1.80;;;;;;;30.15;19.02;98485.78;5074333;28;20043;-92
2021/08/19 09:59:38;;;;;;;4.22;2.25;;;;;;;30.44;19.56;98496.22;5074077;28;20119;-91
2021/08/19 10:02:05;;;;;;;3.78;2.00;;;;;;;30.40;19.07;98494.84;5071980;28;20394;-92
2021/08/19 10:04:31;;;;;;;3.00;1.77;;;;;;;30.32;18.34;98504.97;5073364;28;20041;-90
2021/08/19 10:07:02;;;;;;;3.63;1.90;;;;;;;29.88;18.63;98497.94;5073553;28;20032;-90
2021/08/19 10:09:28;;;;;;;3.70;2.10;;;;;;;29.89;19.15;98492.31;5073563;28;20052;-92
2021/08/19 10:11:58;;;;;;;3.33;1.95;;;;;;;30.17;19.55;98489.22;5073742;28;20044;-91
2021/08/19 10:14:25;;;;;;;3.53;2.00;;;;;;;30.49;18.91;98477.34;5071065;28;20457;-91
2021/08/19 10:16:53;;;;;;;4.10;2.10;;;;;;;30.79;18.90;98487.69;5069999;28;20489;-91
2021/08/19 10:19:25;;;;;;;3.60;1.77;;;;;;;30.93;17.67;98459.53;5073065;28;20425;-92
2021/08/19 10:21:57;;;;;;;5.13;2.15;;;;;;;31.12;17.71;98469.19;5073306;28;20041;-92
2021/08/19 10:24:30;;;;;;;3.55;1.92;;;;;;;30.35;15.94;98474.47;5074027;28;20036;-92
2021/08/19 10:27:09;;;;;;;3.15;1.95;;;;;;;29.87;17.09;98463.38;5074118;28;20051;-91
2021/08/19 10:29:43;;;;;;;3.47;2.00;;;;;;;30.00;18.58;98474.66;5073551;28;20051;-92
2021/08/19 10:32:20;;;;;;;3.47;1.88;;;;;;;30.24;17.23;98470.16;5073450;28;20040;-92
2021/08/19 10:34:55;;;;;;;3.67;2.05;;;;;;;30.45;18.12;98473.25;5073130;28;20489;-91
2021/08/19 10:38:00;;;;;;;5.15;2.20;;;;;;;30.03;17.51;98455.09;5073820;28;20032;-91
2021/08/19 10:40:34;;;;;;;4.85;2.20;;;;;;;30.37;17.83;98473.25;5052440;28;20044;-92
2021/08/19 10:43:43;;;;;;;4.22;2.10;;;;;;;30.17;19.13;98475.50;5071241;28;20047;-92
2021/08/19 10:46:12;;;;;;;5.10;2.20;;;;;;;29.81;19.41;98467.63;5066015;28;20773;-93
2021/08/19 10:48:50;;;;;;;4.88;2.25;;;;;;;30.28;19.75;98461.44;5072900;28;20086;-92
2021/08/19 10:51:17;;;;;;;3.42;2.00;;;;;;;30.62;20.62;98464.94;5072340;28;20045;-91
2021/08/19 10:53:43;;;;;;;4.40;1.95;;;;;;;30.86;18.72;98445.66;5073071;28;20041;-90
2021/08/19 10:56:09;;;;;;;3.42;2.13;;;;;;;31.08;18.21;98454.16;5072761;28;20070;-92
2021/08/19 10:58:37;;;;;;;4.18;2.00;;;;;;;30.75;17.51;98459.72;5073175;28;20040;-93
2021/08/19 11:01:24;;;;;;;3.60;2.00;;;;;;;30.59;18.13;98425.00;5071452;28;20033;-93
2021/08/19 11:03:52;;;;;;;3.43;1.87;;;;;;;30.39;19.12;98438.28;5071971;28;20131;-88
2021/08/19 11:06:19;;;;;;;4.10;2.20;;;;;;;30.42;18.50;98445.28;5072682;28;20040;-91
2021/08/19 11:08:54;;;;;;;3.87;2.17;;;;;;;30.42;18.51;98457.13;5073106;28;20044;-90
2021/08/19 11:11:29;;;;;;;3.83;2.15;;;;;;;30.64;18.91;98444.53;5072720;28;20087;-91
2021/08/19 11:14:00;;;;;;;3.58;2.10;;;;;;;30.74;20.91;98435.22;5072009;28;20085;-90
2021/08/19 11:16:28;;;;;;;4.20;2.30;;;;;;;30.52;18.80;98439.63;5070622;28;20032;-93
2021/08/19 11:18:54;;;;;;;3.50;2.13;;;;;;;30.44;19.67;98438.59;5072573;28;20129;-90
2021/08/19 11:21:20;;;;;;;5.28;2.00;;;;;;;30.66;19.28;98434.22;5072839;28;20072;-91
2021/08/19 11:23:46;;;;;;;3.63;2.22;;;;;;;30.22;18.67;98415.47;5074934;28;20036;-91
2021/08/19 11:26:17;;;;;;;4.45;2.30;;;;;;;30.37;19.08;98437.59;5074682;28;20079;-91
2021/08/19 11:28:45;;;;;;;4.50;2.10;;;;;;;30.49;19.09;98438.94;5072904;28;20039;-91
2021/08/19 11:31:13;;;;;;;4.18;2.15;;;;;;;30.62;18.54;98438.38;5069485;28;20036;-92
2021/08/19 11:33:40;;;;;;;;;;;;;;;30.55;18.82;98433.75;5073429;28;20047;-92
2021/08/19 11:36:07;;;;;;;3.50;1.93;;;;;;;30.73;18.95;98430.75;5073103;28;20400;-92